Time;durP1;ratioP1;P1;durP2;ratioP2;P2;SDS_P1;SDS_P2;PMS_P1;PMS_P2;Temp;Humidity;BMP_temperature;BMP_pressure;BME280_temperature;BME280_humidity;BME280_pressure;Samples;Min_cycle;Max_cycle;Signal;HPM_P1;HPM_P2
2023/02/11 00:01:34;;;;;;;14.73;7.50;;;7.70;99.90;;;;;;5072961;28;20209;-79
2023/02/11 00:04:00;;;;;;;18.60;7.50;;;7.60;99.90;;;;;;5072035;28;20176;-79
2023/02/11 00:06:28;;;;;;;13.32;7.13;;;7.80;99.90;;;;;;5073156;28;20240;-79
2023/02/11 00:08:54;;;;;;;17.48;7.07;;;7.70;99.90;;;;;;5073122;28;20162;-79
2023/02/11 00:11:24;;;;;;;16.83;6.18;;;7.70;99.90;;;;;;5073232;28;20663;-79
2023/02/11 00:13:50;;;;;;;8.13;6.25;;;7.70;99.90;;;;;;5072920;28;20178;-79
2023/02/11 00:16:18;;;;;;;16.35;7.43;;;7.50;99.90;;;;;;5071865;28;20205;-79
2023/02/11 00:18:44;;;;;;;13.02;6.53;;;7.30;99.90;;;;;;5071203;28;20213;-79
2023/02/11 00:21:14;;;;;;;11.70;7.03;;;7.40;99.90;;;;;;5071519;28;20222;-79
2023/02/11 00:23:40;;;;;;;11.07;6.55;;;7.40;99.90;;;;;;5072773;28;20681;-79
2023/02/11 00:26:19;;;;;;;9.25;6.82;;;7.50;99.90;;;;;;5072911;28;20216;-79
2023/02/11 00:28:46;;;;;;;22.73;5.78;;;7.30;99.90;;;;;;5072478;28;20170;-79
2023/02/11 00:31:12;;;;;;;15.75;6.70;;;7.30;99.90;;;;;;5072599;28;20202;-79
2023/02/11 00:33:38;;;;;;;8.00;6.18;;;7.20;99.90;;;;;;5072947;28;20200;-79
2023/02/11 00:36:07;;;;;;;7.80;5.68;;;7.20;99.90;;;;;;5072203;28;20309;-79
2023/02/11 00:38:33;;;;;;;10.45;6.40;;;7.10;99.90;;;;;;5072830;28;20241;-80
2023/02/11 00:40:59;;;;;;;11.20;6.13;;;7.20;99.90;;;;;;5072562;28;20171;-81
2023/02/11 00:43:25;;;;;;;17.30;7.45;;;7.20;99.90;;;;;;5072420;28;20189;-79
2023/02/11 00:45:50;;;;;;;12.77;6.75;;;7.10;99.90;;;;;;5072420;28;20195;-79
2023/02/11 00:48:16;;;;;;;10.68;6.60;;;7.10;99.90;;;;;;5070734;28;20167;-79
2023/02/11 00:50:42;;;;;;;18.20;6.47;;;7.20;99.90;;;;;;5071324;28;20171;-80
2023/02/11 00:53:07;;;;;;;16.25;6.32;;;7.10;99.90;;;;;;5072432;28;20223;-79
2023/02/11 00:55:33;;;;;;;15.45;6.70;;;7.20;99.90;;;;;;5072520;28;20171;-79
2023/02/11 00:57:59;;;;;;;9.77;6.60;;;7.30;99.90;;;;;;5070682;28;20198;-79
2023/02/11 01:00:25;;;;;;;17.95;6.03;;;7.30;99.90;;;;;;5072396;28;20190;-79
2023/02/11 01:02:51;;;;;;;21.33;6.78;;;7.30;99.90;;;;;;5070836;28;20197;-79
2023/02/11 01:05:18;;;;;;;15.63;6.55;;;7.50;99.90;;;;;;5071033;28;20173;-79
2023/02/11 01:07:43;;;;;;;16.75;6.07;;;7.40;99.90;;;;;;5072245;28;20683;-81
2023/02/11 01:10:10;;;;;;;24.02;6.80;;;7.60;99.90;;;;;;5071995;28;20173;-79
2023/02/11 01:12:36;;;;;;;13.85;5.95;;;7.60;99.90;;;;;;5072483;28;20205;-79
2023/02/11 01:15:01;;;;;;;14.25;6.15;;;7.50;99.90;;;;;;5072411;28;20186;-80
2023/02/11 01:17:27;;;;;;;23.08;5.78;;;7.50;99.90;;;;;;5072036;28;20251;-80
2023/02/11 01:19:53;;;;;;;13.98;5.80;;;7.40;99.90;;;;;;5072199;28;20194;-79
2023/02/11 01:22:18;;;;;;;13.93;4.80;;;7.40;99.90;;;;;;5072804;28;20207;-79
2023/02/11 01:24:44;;;;;;;13.68;5.03;;;7.10;99.90;;;;;;5072217;28;20167;-80
2023/02/11 01:27:09;;;;;;;13.15;6.15;;;7.00;99.90;;;;;;5072097;28;20166;-79
2023/02/11 01:29:35;;;;;;;18.48;5.57;;;6.90;99.90;;;;;;5072147;28;20248;-79
2023/02/11 01:32:01;;;;;;;7.75;5.00;;;7.00;99.90;;;;;;5070932;28;20186;-79
2023/02/11 01:34:27;;;;;;;11.60;5.55;;;7.00;99.90;;;;;;5072311;28;20185;-79
2023/02/11 01:36:59;;;;;;;17.13;6.20;;;7.00;99.90;;;;;;5071966;28;20198;-79
2023/02/11 01:39:26;;;;;;;8.73;4.93;;;7.10;99.90;;;;;;5071798;28;20893;-81
2023/02/11 01:41:52;;;;;;;10.85;5.75;;;7.20;99.90;;;;;;5072198;28;20191;-79
2023/02/11 01:44:30;;;;;;;13.18;4.93;;;7.20;99.90;;;;;;5072133;28;20253;-80
2023/02/11 01:46:56;;;;;;;7.18;4.57;;;7.30;99.90;;;;;;5071869;28;20178;-80
2023/02/11 01:49:27;;;;;;;19.77;5.55;;;7.30;99.90;;;;;;5070658;28;20273;-80
2023/02/11 01:51:55;;;;;;;15.63;5.47;;;7.20;99.90;;;;;;5071952;28;20204;-80
2023/02/11 01:57:20;;;;;;;17.05;5.18;;;7.20;99.90;;;;;;5072055;28;20253;-81
2023/02/11 02:00:13;;;;;;;14.52;5.72;;;7.10;99.90;;;;;;5073956;28;20166;-79
2023/02/11 02:03:07;;;;;;;17.95;5.20;;;6.90;99.90;;;;;;5074254;28;20197;-82
2023/02/11 02:05:54;;;;;;;12.13;4.80;;;6.90;99.90;;;;;;5075961;28;20544;-79
2023/02/11 02:08:31;;;;;;;20.27;6.03;;;7.00;99.90;;;;;;5075174;28;20541;-79
2023/02/11 02:10:59;;;;;;;23.55;5.55;;;7.20;99.90;;;;;;5075269;28;20167;-80
2023/02/11 02:13:26;;;;;;;10.38;5.82;;;7.30;99.90;;;;;;5073927;28;20219;-80
2023/02/11 02:15:53;;;;;;;16.35;5.28;;;7.40;99.90;;;;;;5075370;28;20638;-79
2023/02/11 02:18:40;;;;;;;11.75;5.25;;;7.60;99.90;;;;;;5074204;28;20254;-81
2023/02/11 02:21:39;;;;;;;11.85;4.65;;;7.60;99.90;;;;;;5074965;28;20590;-80
2023/02/11 02:24:23;;;;;;;10.65;6.20;;;7.90;99.90;;;;;;5073524;28;20170;-80
2023/02/11 02:27:15;;;;;;;9.90;5.03;;;7.90;99.90;;;;;;5075122;28;20178;-80
2023/02/11 02:30:11;;;;;;;10.60;6.00;;;7.90;99.90;;;;;;5075043;28;20250;-79
2023/02/11 02:33:15;;;;;;;12.70;5.70;;;7.80;99.90;;;;;;5073768;28;20198;-80
2023/02/11 02:36:04;;;;;;;9.55;5.90;;;7.90;99.90;;;;;;5041058;28;20174;-80
2023/02/11 02:38:36;;;;;;;21.45;5.60;;;7.90;99.90;;;;;;5075086;28;20236;-80
2023/02/11 02:41:12;;;;;;;14.75;5.72;;;7.80;99.90;;;;;;5075166;28;20241;-80
2023/02/11 02:43:44;;;;;;;8.82;5.45;;;7.80;99.90;;;;;;5074851;28;20178;-79
2023/02/11 02:46:19;;;;;;;16.17;5.75;;;7.90;99.90;;;;;;5074943;28;20220;-80
2023/02/11 02:48:48;;;;;;;10.15;5.85;;;7.80;99.90;;;;;;5073204;28;20258;-80
2023/02/11 02:51:48;;;;;;;10.80;5.05;;;7.80;99.90;;;;;;5074482;28;20182;-80
2023/02/11 02:54:38;;;;;;;12.63;4.97;;;7.80;99.90;;;;;;5074519;28;20622;-81
2023/02/11 02:57:12;;;;;;;13.40;4.72;;;7.90;99.90;;;;;;5073249;28;20681;-79
2023/02/11 03:00:13;;;;;;;15.93;5.57;;;7.80;99.90;;;;;;5074475;28;20163;-79
2023/02/11 03:02:50;;;;;;;13.88;5.38;;;7.70;99.90;;;;;;5041656;28;20207;-79
2023/02/11 03:05:41;;;;;;;11.80;4.80;;;7.90;99.90;;;;;;5074716;28;20579;-79
2023/02/11 03:08:13;;;;;;;11.15;5.38;;;7.90;99.90;;;;;;5074029;28;20220;-79
2023/02/11 03:10:46;;;;;;;14.45;5.68;;;7.90;99.90;;;;;;5073496;28;20243;-81
2023/02/11 03:13:15;;;;;;;14.65;6.13;;;7.80;99.90;;;;;;5074199;28;20198;-78
2023/02/11 03:15:45;;;;;;;11.52;4.82;;;7.80;99.90;;;;;;5074213;28;20173;-80
2023/02/11 03:18:14;;;;;;;24.33;5.90;;;7.90;99.90;;;;;;5072910;28;20213;-80
2023/02/11 03:20:44;;;;;;;19.30;5.28;;;8.10;99.90;;;;;;5074185;28;20162;-79
2023/02/11 03:23:34;;;;;;;9.85;4.78;;;8.10;99.90;;;;;;5073941;28;20638;-78
2023/02/11 03:26:36;;;;;;;7.57;5.28;;;8.10;99.90;;;;;;5074306;28;20174;-80
2023/02/11 03:29:29;;;;;;;12.55;5.30;;;8.10;99.90;;;;;;5054666;28;20204;-79
2023/02/11 03:32:21;;;;;;;9.52;5.78;;;7.90;99.90;;;;;;5073733;28;20733;-81
2023/02/11 03:35:35;;;;;;;7.22;4.95;;;7.90;99.90;;;;;;5061874;28;20297;-79
2023/02/11 03:38:24;;;;;;;16.02;5.85;;;8.00;99.90;;;;;;5060089;28;20214;-81
2023/02/11 03:40:49;;;;;;;13.10;5.75;;;8.10;99.90;;;;;;5073584;28;20167;-80
2023/02/11 03:43:27;;;;;;;24.55;6.05;;;8.10;99.90;;;;;;5073823;28;20170;-81
2023/02/11 03:45:55;;;;;;;9.18;5.10;;;8.10;99.90;;;;;;5073678;28;20641;-80
2023/02/11 03:48:43;;;;;;;17.85;6.30;;;8.30;99.90;;;;;;5073584;28;20615;-79
2023/02/11 03:51:11;;;;;;;12.68;6.03;;;8.20;99.90;;;;;;5073540;28;20194;-80
2023/02/11 03:53:39;;;;;;;21.73;6.20;;;8.20;99.90;;;;;;5073631;28;20209;-80
2023/02/11 03:56:09;;;;;;;18.25;6.82;;;7.90;99.90;;;;;;5073417;28;20170;-80
2023/02/11 03:58:34;;;;;;;13.55;5.97;;;8.00;99.90;;;;;;5073693;28;20232;-79
2023/02/11 04:01:01;;;;;;;16.60;5.43;;;8.10;99.90;;;;;;5073340;28;20257;-79
2023/02/11 04:03:27;;;;;;;9.52;6.03;;;8.20;99.90;;;;;;5073298;28;20170;-80
2023/02/11 04:05:53;;;;;;;18.25;5.72;;;8.20;99.90;;;;;;5073498;28;20165;-80
2023/02/11 04:08:19;;;;;;;13.02;5.18;;;8.20;99.90;;;;;;5073130;28;20246;-79
2023/02/11 04:10:45;;;;;;;17.63;6.03;;;8.30;99.90;;;;;;5073482;28;20261;-80
2023/02/11 04:13:10;;;;;;;13.15;5.93;;;8.20;99.90;;;;;;5073052;28;20301;-80
2023/02/11 04:15:36;;;;;;;16.40;6.40;;;8.10;99.90;;;;;;5073121;28;20166;-80
2023/02/11 04:18:02;;;;;;;13.57;6.45;;;8.10;99.90;;;;;;5072827;28;20202;-80
2023/02/11 04:20:28;;;;;;;18.73;5.38;;;8.20;99.90;;;;;;5072544;28;20249;-81
2023/02/11 04:22:54;;;;;;;14.77;7.35;;;8.30;99.90;;;;;;5072750;28;20179;-80
2023/02/11 04:25:19;;;;;;;7.38;5.75;;;8.10;99.90;;;;;;5073347;28;20556;-81
2023/02/11 04:27:45;;;;;;;13.43;6.78;;;8.10;99.90;;;;;;5072741;28;20163;-80
2023/02/11 04:30:12;;;;;;;20.70;7.05;;;8.20;99.90;;;;;;5072395;28;20169;-80
2023/02/11 04:32:38;;;;;;;9.23;5.63;;;8.30;99.90;;;;;;5072720;28;20185;-80
2023/02/11 04:35:04;;;;;;;20.73;6.70;;;8.20;99.90;;;;;;5072670;28;20162;-80
2023/02/11 04:37:29;;;;;;;23.02;6.68;;;8.10;99.90;;;;;;5072272;28;20228;-81
2023/02/11 04:39:55;;;;;;;12.15;6.30;;;8.40;99.90;;;;;;5072763;28;20163;-80
2023/02/11 04:42:21;;;;;;;19.27;6.65;;;8.30;99.90;;;;;;5071515;28;20194;-77
2023/02/11 04:44:46;;;;;;;20.92;6.85;;;8.20;99.90;;;;;;5072757;28;20167;-78
2023/02/11 04:47:14;;;;;;;14.07;5.68;;;8.20;99.90;;;;;;5071315;28;20224;-80
2023/02/11 04:49:39;;;;;;;13.18;7.80;;;8.30;99.90;;;;;;5072659;28;20159;-79
2023/02/11 04:52:05;;;;;;;10.55;6.55;;;8.40;99.90;;;;;;5072328;28;20858;-78
2023/02/11 04:54:31;;;;;;;15.27;6.85;;;8.40;99.90;;;;;;5071082;28;20174;-78
2023/02/11 04:56:56;;;;;;;17.65;6.93;;;8.40;99.90;;;;;;5072514;28;20284;-81
2023/02/11 04:59:22;;;;;;;18.38;7.78;;;8.40;99.90;;;;;;5072666;28;20611;-79
2023/02/11 05:01:48;;;;;;;21.48;6.75;;;8.50;99.90;;;;;;5072476;28;20209;-78
2023/02/11 05:04:14;;;;;;;14.55;7.60;;;8.70;99.90;;;;;;5070726;28;20179;-80
2023/02/11 05:06:40;;;;;;;16.30;7.45;;;8.70;99.90;;;;;;5072091;28;20712;-80
2023/02/11 05:09:06;;;;;;;15.50;6.88;;;8.50;99.90;;;;;;5072185;28;20197;-80
2023/02/11 05:11:31;;;;;;;13.63;8.07;;;8.40;99.90;;;;;;5072184;28;20182;-78
2023/02/11 05:13:57;;;;;;;13.77;6.82;;;8.40;99.90;;;;;;5071019;28;20186;-80
2023/02/11 05:16:23;;;;;;;16.42;7.32;;;8.50;99.90;;;;;;5072400;28;20554;-79
2023/02/11 05:18:49;;;;;;;16.92;7.45;;;8.30;99.90;;;;;;5072427;28;20178;-79
2023/02/11 05:21:17;;;;;;;16.10;6.72;;;8.10;99.90;;;;;;5072130;28;20208;-79
2023/02/11 05:23:44;;;;;;;18.92;8.27;;;8.10;99.90;;;;;;5071839;28;20158;-80
2023/02/11 05:26:10;;;;;;;22.15;8.15;;;8.30;99.90;;;;;;5071872;28;20193;-79
2023/02/11 05:28:36;;;;;;;19.42;8.23;;;8.40;99.90;;;;;;5072069;28;20178;-79
2023/02/11 05:31:03;;;;;;;16.27;7.53;;;8.50;99.90;;;;;;5072600;28;20170;-80
2023/02/11 05:33:28;;;;;;;12.18;7.55;;;8.40;99.90;;;;;;5073431;28;20246;-79
2023/02/11 05:36:02;;;;;;;16.35;8.02;;;8.30;99.90;;;;;;5076214;28;20282;-79
2023/02/11 05:38:28;;;;;;;19.58;8.68;;;8.40;99.90;;;;;;5075684;28;20257;-79
2023/02/11 05:40:54;;;;;;;13.40;7.55;;;8.30;99.90;;;;;;5074597;28;20714;-80
2023/02/11 05:43:19;;;;;;;24.77;9.25;;;8.30;99.90;;;;;;5075874;28;20202;-79
2023/02/11 05:45:45;;;;;;;16.58;8.00;;;8.20;99.90;;;;;;5075917;28;20171;-80
2023/02/11 05:48:11;;;;;;;11.68;7.95;;;8.40;99.90;;;;;;5075995;28;20163;-80
2023/02/11 05:50:36;;;;;;;20.38;8.63;;;8.40;99.90;;;;;;5075926;28;20163;-79
2023/02/11 05:53:02;;;;;;;18.20;8.48;;;8.40;99.90;;;;;;5075652;28;20310;-80
2023/02/11 05:55:28;;;;;;;16.85;8.38;;;8.40;99.90;;;;;;5075294;28;20170;-79
2023/02/11 05:57:53;;;;;;;18.23;8.50;;;8.20;99.90;;;;;;5074268;28;20202;-79
2023/02/11 06:00:19;;;;;;;12.25;8.43;;;8.40;99.90;;;;;;5075597;28;20262;-80
2023/02/11 06:02:45;;;;;;;22.20;8.77;;;8.40;99.90;;;;;;5075358;28;20423;-79
2023/02/11 06:05:10;;;;;;;16.67;9.02;;;8.40;99.90;;;;;;5075815;28;20173;-79
2023/02/11 06:07:36;;;;;;;23.15;9.10;;;8.30;99.90;;;;;;5074282;28;20196;-80
2023/02/11 06:10:02;;;;;;;31.00;9.82;;;8.40;99.90;;;;;;5075457;28;20170;-79
2023/02/11 06:12:27;;;;;;;24.92;10.50;;;8.40;99.90;;;;;;5074056;28;20673;-79
2023/02/11 06:14:53;;;;;;;24.95;10.45;;;8.40;99.90;;;;;;5074997;28;20185;-78
2023/02/11 06:17:19;;;;;;;16.98;9.07;;;8.50;99.90;;;;;;5073937;28;20206;-79
2023/02/11 06:19:44;;;;;;;27.92;10.70;;;8.50;99.90;;;;;;5075410;28;20174;-79
2023/02/11 06:22:10;;;;;;;16.60;9.88;;;8.60;99.90;;;;;;5074958;28;20186;-80
2023/02/11 06:24:36;;;;;;;14.55;8.65;;;8.40;99.90;;;;;;5075292;28;20182;-80
2023/02/11 06:27:03;;;;;;;17.90;10.15;;;8.40;99.90;;;;;;5075040;28;20182;-80
2023/02/11 06:29:29;;;;;;;15.90;10.10;;;8.50;99.90;;;;;;5075113;28;20163;-79
2023/02/11 06:31:55;;;;;;;31.17;10.68;;;8.50;99.90;;;;;;5075038;28;20186;-81
2023/02/11 06:34:20;;;;;;;19.52;9.10;;;8.50;99.90;;;;;;5075278;28;20569;-79
2023/02/11 06:36:46;;;;;;;14.82;10.43;;;8.40;99.90;;;;;;5074903;28;20625;-80
2023/02/11 06:39:12;;;;;;;14.55;9.40;;;8.50;99.90;;;;;;5073708;28;20166;-79
2023/02/11 06:41:38;;;;;;;19.65;10.27;;;8.50;99.90;;;;;;5073646;28;20530;-80
2023/02/11 06:44:04;;;;;;;15.52;10.38;;;8.50;99.90;;;;;;5073555;28;20173;-79
2023/02/11 06:46:30;;;;;;;20.88;11.63;;;8.50;99.90;;;;;;5074029;28;20170;-80
2023/02/11 06:48:55;;;;;;;31.73;11.48;;;8.50;99.90;;;;;;5073840;28;20174;-79
2023/02/11 06:51:21;;;;;;;23.90;10.82;;;8.60;99.90;;;;;;5074712;28;20194;-79
2023/02/11 06:53:47;;;;;;;19.73;10.90;;;8.70;99.90;;;;;;5074457;28;20175;-79
2023/02/11 06:56:18;;;;;;;25.95;12.15;;;8.70;99.90;;;;;;5074781;28;20177;-81
2023/02/11 06:58:44;;;;;;;19.90;11.40;;;8.70;99.90;;;;;;5074739;28;20174;-79
2023/02/11 07:01:13;;;;;;;29.13;12.68;;;8.60;99.90;;;;;;5073208;28;20199;-78
2023/02/11 07:03:41;;;;;;;35.70;13.57;;;8.50;99.90;;;;;;5073352;28;20210;-80
2023/02/11 07:06:10;;;;;;;29.63;11.80;;;8.50;99.90;;;;;;5074450;28;20187;-80
2023/02/11 07:08:36;;;;;;;25.95;12.52;;;8.60;99.90;;;;;;5074673;28;20166;-80
2023/02/11 07:11:11;;;;;;;28.02;12.27;;;8.80;99.90;;;;;;5074592;28;20208;-80
2023/02/11 07:13:37;;;;;;;26.70;12.45;;;8.80;99.90;;;;;;5074283;28;20209;-79
2023/02/11 07:16:08;;;;;;;27.58;13.77;;;8.90;99.90;;;;;;5074304;28;20643;-80
2023/02/11 07:18:34;;;;;;;29.05;13.57;;;9.00;99.90;;;;;;5074437;28;20162;-80
2023/02/11 07:21:04;;;;;;;29.17;14.27;;;9.00;99.90;;;;;;5074037;28;20576;-80
2023/02/11 07:23:30;;;;;;;34.97;13.88;;;9.00;99.90;;;;;;5074269;28;20177;-80
2023/02/11 07:25:56;;;;;;;30.08;15.13;;;9.20;99.90;;;;;;5074096;28;20163;-80
2023/02/11 07:28:21;;;;;;;31.98;14.30;;;9.20;99.90;;;;;;5073928;28;20267;-80
2023/02/11 07:30:47;;;;;;;33.00;13.93;;;9.40;99.90;;;;;;5073916;28;20535;-82
2023/02/11 07:33:12;;;;;;;32.72;14.80;;;9.40;99.90;;;;;;5072435;28;20197;-80
2023/02/11 07:35:38;;;;;;;26.45;14.25;;;9.50;99.90;;;;;;5073837;28;20178;-79
2023/02/11 07:38:04;;;;;;;33.13;13.82;;;9.20;99.90;;;;;;5073855;28;20662;-79
2023/02/11 07:40:30;;;;;;;26.48;14.40;;;9.20;99.90;;;;;;5072456;28;20167;-80
2023/02/11 07:42:56;;;;;;;35.15;14.25;;;9.30;99.90;;;;;;5073370;28;20197;-80
2023/02/11 07:45:23;;;;;;;22.67;13.52;;;9.10;99.90;;;;;;5073416;28;20244;-80
2023/02/11 07:47:49;;;;;;;30.33;13.70;;;9.20;99.90;;;;;;5073585;28;20224;-80
2023/02/11 07:50:16;;;;;;;19.67;13.40;;;9.10;99.90;;;;;;5073819;28;20615;-82
2023/02/11 07:52:41;;;;;;;26.95;13.95;;;9.00;99.90;;;;;;5073312;28;20285;-81
2023/02/11 07:55:08;;;;;;;30.60;14.93;;;9.20;99.90;;;;;;5073539;28;20698;-81
2023/02/11 07:57:34;;;;;;;24.10;13.63;;;9.20;99.90;;;;;;5072906;28;20202;-79
2023/02/11 08:00:00;;;;;;;25.52;14.30;;;9.20;99.90;;;;;;5073371;28;20527;-79
2023/02/11 08:02:26;;;;;;;26.13;13.38;;;9.20;99.90;;;;;;5072969;28;20659;-79
2023/02/11 08:04:51;;;;;;;40.90;15.07;;;9.40;99.90;;;;;;5073436;28;20782;-80
2023/02/11 08:07:18;;;;;;;28.63;14.65;;;9.40;99.90;;;;;;5072984;28;20163;-79
2023/02/11 08:09:44;;;;;;;23.30;13.45;;;9.30;99.90;;;;;;5071468;28;20577;-82
2023/02/11 08:12:09;;;;;;;26.38;14.20;;;9.30;99.90;;;;;;5073078;28;20194;-81
2023/02/11 08:14:35;;;;;;;33.33;16.05;;;9.40;99.90;;;;;;5072917;28;20208;-81
2023/02/11 08:17:01;;;;;;;27.88;14.35;;;9.30;99.90;;;;;;5071579;28;20220;-80
2023/02/11 08:19:26;;;;;;;30.27;15.25;;;9.40;99.90;;;;;;5072840;28;20170;-81
2023/02/11 08:21:56;;;;;;;32.08;14.98;;;9.30;99.90;;;;;;5072674;28;20221;-80
2023/02/11 08:24:22;;;;;;;28.42;15.27;;;9.30;99.90;;;;;;5071754;28;20557;-80
2023/02/11 08:26:48;;;;;;;39.55;16.95;;;9.20;99.90;;;;;;5073110;28;20167;-78
2023/02/11 08:29:15;;;;;;;27.85;15.63;;;9.30;99.90;;;;;;5071268;28;20163;-80
2023/02/11 08:31:43;;;;;;;22.00;14.77;;;9.10;99.90;;;;;;5072056;28;20190;-79
2023/02/11 08:34:10;;;;;;;31.02;16.80;;;9.20;99.90;;;;;;5073003;28;20194;-82
2023/02/11 08:36:37;;;;;;;29.77;15.68;;;9.30;99.90;;;;;;5072621;28;20221;-81
2023/02/11 08:39:06;;;;;;;37.65;16.88;;;9.50;99.90;;;;;;5072910;28;20167;-80
2023/02/11 08:41:33;;;;;;;36.13;16.35;;;9.50;99.90;;;;;;5072765;28;20182;-81
2023/02/11 08:43:59;;;;;;;39.70;16.60;;;9.50;99.90;;;;;;5072503;28;20179;-80
2023/02/11 08:46:25;;;;;;;34.83;17.95;;;9.50;99.90;;;;;;5072463;28;20174;-82
2023/02/11 08:48:51;;;;;;;42.60;18.30;;;9.50;99.90;;;;;;5072419;28;20154;-81
2023/02/11 08:51:20;;;;;;;32.33;17.48;;;9.40;99.90;;;;;;5072017;28;20235;-80
2023/02/11 08:53:46;;;;;;;39.95;18.77;;;9.40;99.90;;;;;;5072382;28;20162;-79
2023/02/11 08:56:13;;;;;;;39.45;17.90;;;9.60;99.90;;;;;;5072241;28;20177;-80
2023/02/11 08:58:39;;;;;;;40.75;17.75;;;9.60;99.90;;;;;;5072271;28;20171;-80
2023/02/11 09:01:12;;;;;;;38.25;17.23;;;9.60;99.90;;;;;;5072084;28;20442;-79
2023/02/11 09:03:37;;;;;;;42.75;19.60;;;9.60;99.90;;;;;;5071929;28;20163;-80
2023/02/11 09:06:08;;;;;;;50.10;18.80;;;9.80;99.90;;;;;;5071580;28;20181;-80
2023/02/11 09:08:39;;;;;;;42.03;17.08;;;9.60;99.90;;;;;;5071502;28;20162;-79
2023/02/11 09:11:05;;;;;;;36.33;17.70;;;9.80;99.90;;;;;;5072140;28;20202;-80
2023/02/11 09:13:32;;;;;;;38.53;17.60;;;9.80;99.90;;;;;;5071692;28;20267;-80
2023/02/11 09:16:00;;;;;;;35.08;17.73;;;9.70;99.90;;;;;;5071848;28;20170;-81
2023/02/11 09:18:25;;;;;;;44.88;19.73;;;9.80;99.90;;;;;;5072336;28;20217;-82
2023/02/11 09:20:51;;;;;;;38.42;19.98;;;10.00;99.90;;;;;;5071010;28;20166;-80
2023/02/11 09:23:17;;;;;;;38.13;19.45;;;9.90;99.90;;;;;;5070677;28;20166;-80
2023/02/11 09:25:42;;;;;;;56.30;22.98;;;10.00;99.90;;;;;;5071716;28;20162;-80
2023/02/11 09:28:08;;;;;;;50.53;20.77;;;10.10;99.90;;;;;;5072107;28;20249;-80
2023/02/11 09:30:35;;;;;;;47.45;20.10;;;10.00;99.90;;;;;;5072471;28;20619;-80
2023/02/11 09:33:01;;;;;;;45.47;20.75;;;10.00;99.90;;;;;;5070448;28;20201;-81
2023/02/11 09:35:27;;;;;;;40.60;20.05;;;9.80;99.90;;;;;;5070750;28;20171;-79
2023/02/11 09:37:53;;;;;;;45.38;20.15;;;9.80;99.90;;;;;;5070268;28;20674;-79
2023/02/11 09:40:19;;;;;;;40.78;20.48;;;9.90;99.90;;;;;;5071538;28;20185;-79
2023/02/11 09:42:55;;;;;;;48.30;21.05;;;9.90;99.90;;;;;;5071871;28;20737;-79
2023/02/11 09:45:24;;;;;;;51.95;19.45;;;9.90;99.90;;;;;;5071945;28;20224;-80
2023/02/11 09:47:58;;;;;;;50.42;21.92;;;10.10;99.90;;;;;;5072161;28;20261;-80
2023/02/11 09:50:32;;;;;;;48.30;19.98;;;10.20;99.90;;;;;;5071889;28;20265;-81
2023/02/11 09:53:09;;;;;;;52.17;21.58;;;10.10;99.90;;;;;;5071651;28;20198;-80
2023/02/11 09:55:41;;;;;;;40.53;19.40;;;10.00;99.90;;;;;;5071773;28;20162;-79
2023/02/11 09:58:13;;;;;;;58.55;22.58;;;10.00;99.90;;;;;;5071835;28;20686;-81
2023/02/11 10:00:46;;;;;;;49.63;20.85;;;10.10;99.90;;;;;;5073489;28;20166;-91
2023/02/11 10:03:37;;;;;;;49.75;22.33;;;10.20;99.90;;;;;;5076373;28;20205;-83
2023/02/11 10:06:12;;;;;;;47.38;20.13;;;10.10;99.90;;;;;;5077859;28;20216;-82
2023/02/11 10:08:46;;;;;;;52.03;21.73;;;10.00;99.90;;;;;;5069009;28;20173;-83
2023/02/11 10:11:25;;;;;;;51.78;21.33;;;10.10;99.90;;;;;;5070019;28;20194;-84
2023/02/11 10:14:00;;;;;;;44.47;21.80;;;10.20;99.90;;;;;;5067628;28;20662;-83
2023/02/11 10:16:52;;;;;;;57.65;23.75;;;10.20;99.90;;;;;;5070645;28;20177;-80
2023/02/11 10:19:40;;;;;;;47.05;22.30;;;10.30;99.90;;;;;;5070781;28;20202;-78
2023/02/11 10:22:28;;;;;;;43.97;21.15;;;10.20;99.90;;;;;;5071261;28;20209;-78
2023/02/11 10:24:59;;;;;;;43.03;20.77;;;10.30;99.90;;;;;;5074561;28;20731;-79
2023/02/11 10:27:32;;;;;;;46.92;21.23;;;10.40;99.90;;;;;;5075128;28;20193;-87
2023/02/11 10:30:26;;;;;;;58.47;21.35;;;10.20;99.90;;;;;;5074888;28;20223;-79
2023/02/11 10:33:13;;;;;;;58.83;23.80;;;10.00;99.90;;;;;;5074820;28;20201;-78
2023/02/11 10:35:39;;;;;;;52.38;21.77;;;10.00;99.90;;;;;;5074725;28;20601;-78
2023/02/11 10:38:04;;;;;;;50.88;21.80;;;10.20;99.90;;;;;;5073747;28;20278;-81
2023/02/11 10:40:31;;;;;;;48.72;23.05;;;10.20;99.90;;;;;;5073797;28;20249;-79
2023/02/11 10:43:19;;;;;;;43.42;21.20;;;10.20;99.90;;;;;;5072934;28;20229;-81
2023/02/11 10:45:50;;;;;;;40.55;20.35;;;10.20;99.90;;;;;;5074543;28;20186;-80
2023/02/11 10:48:41;;;;;;;47.92;21.63;;;10.30;99.90;;;;;;5075124;28;20638;-78
2023/02/11 10:51:21;;;;;;;46.22;21.83;;;10.20;99.90;;;;;;5074177;28;20169;-79
2023/02/11 10:53:50;;;;;;;47.72;21.95;;;10.20;99.90;;;;;;5076684;28;20214;-83
2023/02/11 10:56:27;;;;;;;47.63;19.67;;;10.10;99.90;;;;;;5082828;28;20171;-77
2023/02/11 10:59:13;;;;;;;45.55;20.13;;;10.00;99.90;;;;;;5085256;28;20182;-77
2023/02/11 11:02:10;;;;;;;45.83;21.52;;;10.20;99.90;;;;;;5082387;28;20182;-78
2023/02/11 11:04:43;;;;;;;47.60;21.80;;;10.10;99.90;;;;;;5082550;28;20179;-77
2023/02/11 11:07:28;;;;;;;38.03;19.42;;;10.30;99.90;;;;;;5083565;28;20175;-77
2023/02/11 11:10:02;;;;;;;44.13;21.77;;;10.30;99.90;;;;;;5081332;28;20159;-78
2023/02/11 11:12:28;;;;;;;40.28;20.75;;;10.20;99.90;;;;;;5079683;28;20189;-77
2023/02/11 11:15:00;;;;;;;43.25;21.15;;;10.40;99.90;;;;;;5081161;28;20205;-78
2023/02/11 11:17:28;;;;;;;47.15;22.17;;;10.20;99.90;;;;;;5079677;28;20242;-77
2023/02/11 11:20:35;;;;;;;51.47;21.13;;;10.30;99.90;;;;;;5081458;28;20166;-78
2023/02/11 11:23:23;;;;;;;56.10;23.55;;;10.20;99.90;;;;;;5081148;28;20182;-79
2023/02/11 11:26:03;;;;;;;51.45;21.35;;;10.50;99.90;;;;;;5078946;28;20253;-80
2023/02/11 11:28:35;;;;;;;44.03;20.88;;;10.40;99.90;;;;;;5073002;28;20171;-80
2023/02/11 11:31:01;;;;;;;40.35;22.30;;;10.70;99.90;;;;;;5074236;28;20616;-81
2023/02/11 11:33:31;;;;;;;45.42;22.40;;;10.80;99.90;;;;;;5074203;28;20177;-80
2023/02/11 11:36:06;;;;;;;48.17;22.73;;;11.00;99.90;;;;;;5074071;28;20170;-85
2023/02/11 11:38:35;;;;;;;46.63;21.45;;;11.00;99.90;;;;;;5074376;28;20360;-82
2023/02/11 11:41:14;;;;;;;56.90;23.65;;;11.00;99.90;;;;;;5073579;28;20165;-81
2023/02/11 11:44:11;;;;;;;51.67;24.10;;;10.80;99.90;;;;;;5073719;28;20197;-82
2023/02/11 11:46:41;;;;;;;50.60;22.10;;;10.90;99.90;;;;;;5073409;28;20177;-82
2023/02/11 11:49:18;;;;;;;52.03;22.65;;;11.10;99.90;;;;;;5073725;28;20198;-81
2023/02/11 11:51:52;;;;;;;55.47;22.52;;;11.00;99.90;;;;;;5073283;28;20208;-81
2023/02/11 11:54:19;;;;;;;58.58;22.10;;;11.00;99.90;;;;;;5073572;28;20174;-80
2023/02/11 11:56:54;;;;;;;52.63;23.48;;;11.00;99.90;;;;;;5073850;28;20728;-79
2023/02/11 11:59:21;;;;;;;46.33;23.65;;;11.00;99.90;;;;;;5072133;28;20201;-81
2023/02/11 12:02:05;;;;;;;53.65;25.08;;;11.10;99.90;;;;;;5073242;28;20193;-81
2023/02/11 12:05:07;;;;;;;45.53;24.25;;;10.90;99.90;;;;;;5073292;28;20232;-81
2023/02/11 12:07:59;;;;;;;51.67;22.10;;;11.00;99.90;;;;;;5073777;28;20190;-81
2023/02/11 12:10:49;;;;;;;42.67;22.10;;;10.90;99.90;;;;;;5071816;28;20640;-80
2023/02/11 12:13:27;;;;;;;48.08;22.05;;;10.80;99.90;;;;;;5072044;28;20205;-81
2023/02/11 12:15:59;;;;;;;45.30;23.08;;;10.90;99.90;;;;;;5073230;28;20189;-81
2023/02/11 12:18:41;;;;;;;50.90;23.73;;;11.00;99.90;;;;;;5071470;28;20210;-82
2023/02/11 12:21:16;;;;;;;49.58;24.40;;;11.00;99.90;;;;;;5071513;28;20178;-80
2023/02/11 12:24:09;;;;;;;51.35;22.75;;;11.10;99.90;;;;;;5072562;28;20240;-79
2023/02/11 12:26:55;;;;;;;50.35;23.25;;;11.00;99.90;;;;;;5073234;28;20623;-83
2023/02/11 12:29:50;;;;;;;55.80;23.00;;;11.10;99.90;;;;;;5073308;28;20198;-80
2023/02/11 12:32:24;;;;;;;56.65;24.48;;;11.10;99.90;;;;;;5072869;28;20654;-80
2023/02/11 12:35:14;;;;;;;52.35;23.75;;;11.00;99.90;;;;;;5073257;28;20170;-82
2023/02/11 12:37:41;;;;;;;57.20;24.88;;;11.30;99.90;;;;;;5072867;28;20208;-83
2023/02/11 12:40:28;;;;;;;55.15;25.95;;;11.40;99.90;;;;;;5072775;28;20177;-79
2023/02/11 12:43:31;;;;;;;46.28;24.95;;;11.30;99.90;;;;;;5071383;28;20194;-79
2023/02/11 12:46:00;;;;;;;47.60;22.88;;;11.30;99.90;;;;;;5072653;28;20224;-79
2023/02/11 12:49:00;;;;;;;49.03;24.52;;;10.80;99.90;;;;;;5072455;28;20165;-86
2023/02/11 12:52:03;;;;;;;50.47;25.02;;;10.70;99.90;;;;;;5071845;28;20197;-80
2023/02/11 12:55:03;;;;;;;47.05;23.23;;;10.90;99.90;;;;;;5072258;28;20220;-80
2023/02/11 12:57:32;;;;;;;57.95;25.65;;;11.00;99.90;;;;;;5061250;28;20553;-81
2023/02/11 13:00:07;;;;;;;52.15;22.58;;;11.10;99.90;;;;;;5073402;28;20198;-85
2023/02/11 13:02:45;;;;;;;50.75;24.33;;;11.00;99.90;;;;;;5073570;28;20186;-82
2023/02/11 13:05:36;;;;;;;52.45;23.58;;;11.20;99.90;;;;;;5073353;28;20303;-81
2023/02/11 13:08:20;;;;;;;45.90;24.45;;;11.20;99.90;;;;;;5073127;28;20216;-82